Time;durP1;ratioP1;P1;durP2;ratioP2;P2;SDS_P1;SDS_P2;PMS_P1;PMS_P2;Temp;Humidity;BMP_temperature;BMP_pressure;BME280_temperature;BME280_humidity;BME280_pressure;Samples;Min_cycle;Max_cycle;Signal;HPM_P1;HPM_P2
2021/03/07 00:01:04;;;;;;;17.10;4.20;;;;;;;1.92;61.53;101313.59;124887;1111;24220;-58
2021/03/07 00:03:33;;;;;;;15.83;4.70;;;;;;;1.92;61.44;101313.59;125073;1112;27304;-56
2021/03/07 00:06:06;;;;;;;22.65;4.50;;;;;;;1.93;61.12;101311.59;124770;1111;24094;-58
2021/03/07 00:08:38;;;;;;;17.97;3.93;;;;;;;1.94;61.87;101313.98;125011;1111;23019;-58
2021/03/07 00:11:07;;;;;;;16.50;4.60;;;;;;;1.94;61.56;101310.44;125015;1111;24946;-57
2021/03/07 00:13:37;;;;;;;18.40;4.80;;;;;;;1.95;61.26;101318.29;124945;1110;23033;-58
2021/03/07 00:16:06;;;;;;;;;;;;;;;1.95;61.58;101315.53;124882;1112;23027;-58
2021/03/07 00:18:36;;;;;;;17.90;3.63;;;;;;;1.95;61.39;101312.78;125077;1111;21546;-58
2021/03/07 00:21:06;;;;;;;14.53;3.27;;;;;;;1.96;61.57;101308.86;124967;1112;23187;-59
2021/03/07 00:23:35;;;;;;;16.37;3.37;;;;;;;1.96;61.56;101306.11;125055;1112;23080;-59
2021/03/07 00:26:05;;;;;;;16.20;3.83;;;;;;;1.98;61.32;101291.94;124983;1112;26142;-59
2021/03/07 00:28:34;;;;;;;12.60;3.50;;;;;;;1.98;61.31;101294.69;125128;1112;25857;-58
2021/03/07 00:31:03;;;;;;;13.93;4.03;;;;;;;1.99;61.63;101286.02;125066;1112;22978;-57
2021/03/07 00:33:32;;;;;;;14.80;3.40;;;;;;;2.01;61.59;101286.41;125233;1111;23196;-58
2021/03/07 00:36:01;;;;;;;14.83;3.10;;;;;;;2.01;61.83;101278.16;124925;1110;22965;-57
2021/03/07 00:38:30;;;;;;;15.03;3.40;;;;;;;2.03;61.62;101284.05;125027;1110;23024;-59
2021/03/07 00:40:59;;;;;;;15.03;2.57;;;;;;;2.04;61.55;101287.59;124923;1110;23024;-59
2021/03/07 00:43:28;;;;;;;12.60;2.70;;;;;;;2.05;61.49;101283.67;124941;1112;23014;-59
2021/03/07 00:45:57;;;;;;;19.97;3.93;;;;;;;2.04;61.60;101277.37;124919;1112;22978;-58
2021/03/07 00:48:27;;;;;;;16.03;3.53;;;;;;;2.06;61.63;101274.22;125087;1112;24670;-59
2021/03/07 00:50:56;;;;;;;12.50;2.98;;;;;;;2.06;61.99;101268.70;125009;1112;23198;-55
2021/03/07 00:53:25;;;;;;;16.03;3.73;;;;;;;2.08;61.61;101263.59;124978;1112;23030;-54
2021/03/07 00:55:54;;;;;;;12.40;2.80;;;;;;;2.07;61.95;101268.30;124919;1110;23198;-58
2021/03/07 00:58:24;;;;;;;12.80;3.20;;;;;;;2.09;62.43;101263.19;124961;1111;27881;-57
2021/03/07 01:00:53;;;;;;;13.53;3.17;;;;;;;2.09;61.99;101257.67;124959;1112;23040;-57
2021/03/07 01:03:22;;;;;;;15.47;4.27;;;;;;;2.10;62.70;101250.20;125077;1112;23021;-56
2021/03/07 01:05:52;;;;;;;12.57;3.60;;;;;;;2.11;62.55;101246.28;124973;1112;26468;-56
2021/03/07 01:08:21;;;;;;;13.15;3.40;;;;;;;2.11;62.73;101243.53;124962;1112;27567;-56
2021/03/07 01:10:50;;;;;;;14.97;3.43;;;;;;;2.10;62.48;101239.98;124908;1112;23050;-57
2021/03/07 01:13:20;;;;;;;11.10;2.67;;;;;;;2.11;62.04;101246.28;124897;1112;23012;-58
2021/03/07 01:15:50;;;;;;;15.45;3.42;;;;;;;2.10;62.77;101237.22;124870;1110;23093;-57
2021/03/07 01:18:19;;;;;;;15.53;3.30;;;;;;;2.11;62.18;101238.02;125020;1112;23173;-58
2021/03/07 01:20:49;;;;;;;14.10;3.27;;;;;;;2.11;62.91;101235.27;124964;1112;22984;-57
2021/03/07 01:23:20;;;;;;;14.38;3.92;;;;;;;2.10;62.53;101226.20;125031;1112;23080;-56
2021/03/07 01:25:50;;;;;;;14.27;3.90;;;;;;;2.10;62.72;101217.94;124939;1112;23024;-59
2021/03/07 01:28:19;;;;;;;16.65;3.85;;;;;;;2.12;62.36;101214.78;124920;1111;27432;-58
2021/03/07 01:30:48;;;;;;;13.83;3.33;;;;;;;2.12;62.48;101221.09;124925;1110;27899;-57
2021/03/07 01:33:17;;;;;;;15.03;4.00;;;;;;;2.13;62.82;101213.61;124919;1112;24556;-59
2021/03/07 01:35:47;;;;;;;13.70;3.67;;;;;;;2.13;63.28;101206.11;125081;1111;23023;-58
2021/03/07 01:38:17;;;;;;;12.98;3.52;;;;;;;2.13;62.76;101195.09;124904;1112;23113;-56
2021/03/07 01:40:48;;;;;;;12.90;3.33;;;;;;;2.12;62.97;101201.80;124910;1110;24753;-57
2021/03/07 01:43:17;;;;;;;16.10;4.25;;;;;;;2.12;63.09;101192.75;124779;1110;23009;-57
2021/03/07 01:45:48;;;;;;;13.55;4.08;;;;;;;2.11;63.45;101196.70;124880;1112;23116;-59
2021/03/07 01:48:18;;;;;;;17.67;4.00;;;;;;;2.13;63.61;101192.34;124913;1112;23074;-60
2021/03/07 01:50:48;;;;;;;12.60;3.10;;;;;;;2.12;63.23;101190.78;125144;1111;26386;-59
2021/03/07 01:53:19;;;;;;;14.67;3.63;;;;;;;2.12;63.01;101185.27;124970;1112;26697;-64
2021/03/07 01:55:50;;;;;;;16.43;4.07;;;;;;;2.13;63.69;101186.83;124907;1111;23012;-57
2021/03/07 01:58:23;;;;;;;13.57;3.43;;;;;;;2.13;62.95;101181.33;124863;1112;24860;-58
2021/03/07 02:00:52;;;;;;;14.20;3.67;;;;;;;2.14;63.75;101174.64;125197;1110;23073;-56
2021/03/07 02:03:21;;;;;;;12.33;2.97;;;;;;;2.14;63.72;101177.40;124925;1112;23071;-58
2021/03/07 02:05:51;;;;;;;12.77;3.37;;;;;;;2.15;63.07;101176.20;125002;1110;27301;-58
2021/03/07 02:08:22;;;;;;;11.50;2.50;;;;;;;2.15;63.12;101170.69;125178;1112;24368;-58
2021/03/07 02:10:53;;;;;;;11.63;3.07;;;;;;;2.17;63.25;101164.80;125044;1112;23022;-58
2021/03/07 02:13:30;;;;;;;10.40;2.90;;;;;;;2.18;64.18;101171.87;124946;1110;22991;-57
2021/03/07 02:16:03;;;;;;;12.63;2.57;;;;;;;2.16;63.53;101166.77;124976;1112;23028;-59
2021/03/07 02:18:34;;;;;;;15.93;2.67;;;;;;;2.16;63.68;101160.47;125031;1112;26075;-56
2021/03/07 02:21:10;;;;;;;11.43;2.73;;;;;;;2.17;64.24;101153.78;124943;1112;23017;-58
2021/03/07 02:23:56;;;;;;;11.70;2.60;;;;;;;2.17;64.07;101160.05;125018;1110;26594;-59
2021/03/07 02:26:25;;;;;;;13.20;2.15;;;;;;;2.18;64.36;101152.58;124936;1110;23050;-56
2021/03/07 02:28:55;;;;;;;10.27;2.27;;;;;;;2.18;64.08;101147.08;124995;1112;23086;-58
2021/03/07 02:31:27;;;;;;;15.17;2.57;;;;;;;2.18;63.90;101142.36;125092;1111;26402;-56
2021/03/07 02:34:05;;;;;;;9.85;2.65;;;;;;;2.19;64.00;101138.40;125152;1111;23070;-57
2021/03/07 02:36:39;;;;;;;12.53;2.57;;;;;;;2.20;64.51;101133.69;125080;1112;23093;-58
2021/03/07 02:39:09;;;;;;;10.70;2.80;;;;;;;2.21;64.31;101127.00;125004;1110;26402;-57
2021/03/07 02:41:38;;;;;;;;;;;;;;;2.21;64.56;101132.52;125073;1110;23080;-55
2021/03/07 02:44:13;;;;;;;10.53;2.33;;;;;;;2.21;63.99;101119.53;124970;1111;21539;-57
2021/03/07 02:46:42;;;;;;;14.20;2.70;;;;;;;2.23;64.51;101124.63;124893;1111;23021;-59
2021/03/07 02:49:17;;;;;;;7.73;2.13;;;;;;;2.23;64.03;101114.41;125082;1112;25198;-55
2021/03/07 02:51:49;;;;;;;8.07;2.10;;;;;;;2.23;64.31;101110.86;124971;1111;23996;-58
2021/03/07 02:54:20;;;;;;;7.60;2.00;;;;;;;2.23;64.37;101110.86;125108;1110;23163;-58
2021/03/07 02:56:50;;;;;;;;;;;;;;;2.24;64.46;101096.67;124987;1110;28405;-59
2021/03/07 02:59:24;;;;;;;9.03;2.00;;;;;;;2.26;64.46;101090.75;125074;1110;21533;-58
2021/03/07 03:01:57;;;;;;;10.10;2.50;;;;;;;2.26;63.94;101088.79;124903;1111;23019;-55
2021/03/07 03:04:27;;;;;;;8.27;2.27;;;;;;;2.27;64.11;101093.12;125025;1110;23200;-58
2021/03/07 03:06:57;;;;;;;10.70;2.65;;;;;;;2.28;64.00;101094.69;125009;1110;27432;-58
2021/03/07 03:09:29;;;;;;;13.08;3.25;;;;;;;2.28;64.16;101094.69;125071;1111;23021;-60
2021/03/07 03:12:00;;;;;;;10.87;2.93;;;;;;;2.29;64.12;101093.51;124919;1110;24615;-59
2021/03/07 03:14:30;;;;;;;11.00;3.10;;;;;;;2.30;63.96;101094.27;125035;1112;23154;-57
2021/03/07 03:17:02;;;;;;;13.18;3.60;;;;;;;2.30;64.11;101091.52;125053;1112;23018;-58
2021/03/07 03:19:34;;;;;;;16.53;3.90;;;;;;;2.31;63.98;101084.83;125065;1110;23027;-56
2021/03/07 03:22:03;;;;;;;11.67;3.93;;;;;;;2.31;64.03;101087.59;124931;1112;22978;-57
2021/03/07 03:24:33;;;;;;;14.87;4.70;;;;;;;2.31;64.84;101085.63;125026;1110;23022;-58
2021/03/07 03:27:03;;;;;;;17.70;5.33;;;;;;;2.32;64.69;101084.42;124983;1112;25972;-57
2021/03/07 03:29:33;;;;;;;17.02;5.35;;;;;;;2.33;64.60;101077.73;125068;1112;23035;-58
2021/03/07 03:32:02;;;;;;;15.07;5.13;;;;;;;2.33;64.98;101077.73;125029;1112;23025;-58
2021/03/07 03:34:31;;;;;;;15.43;4.92;;;;;;;2.33;65.03;101074.98;125009;1110;23028;-58
2021/03/07 03:37:00;;;;;;;19.53;6.47;;;;;;;2.33;64.26;101066.72;125068;1110;24674;-58
2021/03/07 03:39:30;;;;;;;18.47;6.57;;;;;;;2.33;65.01;101058.45;124934;1110;23015;-56
2021/03/07 03:42:01;;;;;;;;;;;;;;;2.35;64.94;101067.09;125060;1110;23104;-57
2021/03/07 03:44:34;;;;;;;25.82;6.95;;;;;;;2.33;64.49;101066.72;124965;1112;21568;-55
2021/03/07 03:47:07;;;;;;;22.23;8.00;;;;;;;2.34;65.22;101053.70;124910;1112;26197;-57
2021/03/07 03:49:45;;;;;;;24.75;8.25;;;;;;;2.35;65.08;101058.04;124938;1112;23147;-59
2021/03/07 03:52:16;;;;;;;21.07;7.77;;;;;;;2.34;64.96;101050.95;124982;1112;25969;-58
2021/03/07 03:54:50;;;;;;;26.47;9.33;;;;;;;2.35;64.51;101050.56;125168;1112;24435;-59
2021/03/07 03:57:26;;;;;;;23.70;8.97;;;;;;;2.35;65.16;101053.32;124880;1111;23016;-58
2021/03/07 03:59:57;;;;;;;24.63;9.03;;;;;;;2.36;65.23;101056.84;124919;1112;24547;-58
2021/03/07 04:02:28;;;;;;;28.97;9.93;;;;;;;2.34;64.84;101046.23;124979;1111;23064;-57
2021/03/07 04:04:58;;;;;;;21.33;7.20;;;;;;;2.33;65.02;101050.19;125015;1111;23178;-58
2021/03/07 04:07:29;;;;;;;23.50;8.53;;;;;;;2.33;64.98;101055.70;125113;1110;25877;-58
2021/03/07 04:10:00;;;;;;;25.48;9.68;;;;;;;2.31;65.14;101051.77;124987;1112;23026;-55
2021/03/07 04:12:30;;;;;;;20.90;6.87;;;;;;;2.30;64.88;101045.47;124887;1112;24347;-58
2021/03/07 04:15:00;;;;;;;20.37;7.25;;;;;;;2.30;64.85;101048.22;124905;1112;24652;-59
2021/03/07 04:17:30;;;;;;;20.35;7.28;;;;;;;2.31;65.16;101040.75;124982;1110;23158;-55
2021/03/07 04:20:01;;;;;;;18.60;5.12;;;;;;;2.31;65.04;101043.50;124985;1112;24937;-58
2021/03/07 04:22:30;;;;;;;14.83;4.70;;;;;;;2.31;65.07;101038.78;124706;1112;27367;-58
2021/03/07 04:24:59;;;;;;;16.77;5.20;;;;;;;2.31;65.01;101032.48;124439;1112;23147;-58
2021/03/07 04:27:30;;;;;;;14.83;5.17;;;;;;;2.29;65.48;101030.14;124631;1112;24035;-55
2021/03/07 04:30:00;;;;;;;16.23;5.07;;;;;;;2.30;65.69;101015.16;125018;1112;23042;-57
2021/03/07 04:32:29;;;;;;;14.38;4.30;;;;;;;2.30;64.99;101023.42;125004;1110;23028;-59
2021/03/07 04:34:59;;;;;;;14.80;3.73;;;;;;;2.30;65.59;101020.67;125007;1110;23030;-56
2021/03/07 04:37:28;;;;;;;12.40;3.13;;;;;;;2.29;65.75;101021.08;125320;1112;24770;-58
2021/03/07 04:39:59;;;;;;;16.47;4.17;;;;;;;2.28;65.33;101020.30;125054;1110;26566;-58
2021/03/07 04:42:28;;;;;;;11.60;3.20;;;;;;;2.29;65.63;101021.08;125035;1112;24681;-57
2021/03/07 04:44:57;;;;;;;13.00;3.40;;;;;;;2.28;65.22;101020.30;124923;1112;23019;-57
2021/03/07 04:47:26;;;;;;;11.00;3.65;;;;;;;2.29;65.69;101019.13;124923;1112;24497;-58
2021/03/07 04:49:57;;;;;;;12.97;3.57;;;;;;;2.30;65.02;101017.13;125053;1112;25940;-57
2021/03/07 04:52:26;;;;;;;10.43;2.72;;;;;;;2.29;65.21;101016.37;124908;1112;23238;-57
2021/03/07 04:54:55;;;;;;;10.53;2.60;;;;;;;2.29;65.26;101010.86;125182;1112;22966;-59
2021/03/07 04:57:24;;;;;;;9.43;2.23;;;;;;;2.28;65.79;101003.77;124856;1112;23080;-57
2021/03/07 04:59:53;;;;;;;14.30;2.70;;;;;;;2.27;65.90;100998.66;125070;1112;23042;-57
2021/03/07 05:02:22;;;;;;;10.43;2.70;;;;;;;2.27;65.36;101002.21;124820;1112;23590;-58
2021/03/07 05:04:52;;;;;;;10.97;2.73;;;;;;;2.27;65.51;101004.97;124911;1112;27384;-57
2021/03/07 05:07:21;;;;;;;13.80;2.97;;;;;;;2.27;65.68;101002.21;124992;1110;24537;-58
2021/03/07 05:09:50;;;;;;;9.60;2.50;;;;;;;2.28;65.33;101009.27;124779;1111;23079;-58
2021/03/07 05:12:20;;;;;;;13.28;3.20;;;;;;;2.27;65.57;101010.48;125090;1110;24553;-58
2021/03/07 05:14:49;;;;;;;12.85;3.40;;;;;;;2.27;65.21;101013.23;124954;1111;23071;-55
2021/03/07 05:17:19;;;;;;;10.73;3.07;;;;;;;2.26;65.30;101008.89;125066;1112;24612;-58
2021/03/07 05:19:48;;;;;;;12.60;3.15;;;;;;;2.27;65.33;101004.97;125050;1110;22956;-56
2021/03/07 05:22:19;;;;;;;11.13;3.23;;;;;;;2.28;65.46;100994.70;124927;1111;24598;-59
2021/03/07 05:24:48;;;;;;;13.10;3.30;;;;;;;2.27;65.78;100993.95;124797;1111;23085;-57
2021/03/07 05:27:17;;;;;;;13.40;3.87;;;;;;;2.27;65.56;100993.16;125021;1110;26402;-59
2021/03/07 05:29:47;;;;;;;13.07;3.77;;;;;;;2.25;65.72;100990.81;124974;1111;23036;-58
2021/03/07 05:32:17;;;;;;;15.43;4.93;;;;;;;2.25;66.11;100988.05;124962;1112;23225;-58
2021/03/07 05:34:46;;;;;;;17.60;5.17;;;;;;;2.26;66.09;100986.06;124993;1110;23121;-58
2021/03/07 05:37:15;;;;;;;19.13;5.83;;;;;;;2.26;65.70;100980.55;124910;1110;28520;-59
2021/03/07 05:39:44;;;;;;;16.90;5.53;;;;;;;2.24;65.60;100975.45;125054;1112;24860;-58
2021/03/07 05:42:13;;;;;;;16.07;5.30;;;;;;;2.24;65.79;100972.70;124971;1110;27422;-58
2021/03/07 05:44:43;;;;;;;14.90;5.30;;;;;;;2.24;65.73;100975.45;124906;1112;23083;-58
2021/03/07 05:47:12;;;;;;;18.65;6.28;;;;;;;2.23;65.66;100968.39;125074;1112;26402;-58
2021/03/07 05:49:42;;;;;;;13.77;4.20;;;;;;;2.24;65.78;100958.92;124864;1112;23012;-57
2021/03/07 05:52:13;;;;;;;19.42;6.03;;;;;;;2.24;65.37;100963.64;124948;1111;25994;-55
2021/03/07 05:54:43;;;;;;;16.48;4.92;;;;;;;2.24;66.17;100969.16;125015;1112;26784;-59
2021/03/07 05:57:15;;;;;;;18.73;5.57;;;;;;;2.23;65.50;100965.64;125106;1112;23014;-59
2021/03/07 05:59:45;;;;;;;15.70;5.20;;;;;;;2.23;65.91;100962.88;125021;1112;23021;-58
2021/03/07 06:02:15;;;;;;;14.47;4.55;;;;;;;2.22;65.37;100966.81;124997;1111;23078;-58
2021/03/07 06:04:51;;;;;;;15.35;3.80;;;;;;;2.22;65.61;100966.81;124951;1110;22988;-55
2021/03/07 06:07:21;;;;;;;13.43;3.37;;;;;;;2.22;65.61;100964.06;124956;1112;23080;-58
2021/03/07 06:10:09;;;;;;;14.73;4.33;;;;;;;2.22;66.02;100961.30;124899;1111;23061;-57
2021/03/07 06:12:39;;;;;;;12.70;3.63;;;;;;;2.24;66.02;100953.42;124903;1112;23178;-58
2021/03/07 06:15:12;;;;;;;10.70;2.65;;;;;;;2.25;65.72;100960.51;124933;1110;23014;-59
2021/03/07 06:17:45;;;;;;;13.97;3.67;;;;;;;2.26;65.63;100964.81;124942;1110;23030;-58
2021/03/07 06:20:18;;;;;;;12.43;3.37;;;;;;;2.28;65.34;100961.64;125002;1112;27677;-57
2021/03/07 06:22:55;;;;;;;12.63;3.20;;;;;;;2.28;65.60;100956.13;124942;1112;22974;-58
2021/03/07 06:25:24;;;;;;;9.73;1.97;;;;;;;2.29;65.62;100958.50;124959;1111;23129;-57
2021/03/07 06:27:54;;;;;;;12.13;2.67;;;;;;;2.29;65.57;100958.50;125034;1112;26446;-58
2021/03/07 06:30:25;;;;;;;11.53;2.95;;;;;;;2.30;65.21;100957.30;124945;1112;23027;-58
2021/03/07 06:32:56;;;;;;;10.33;2.80;;;;;;;2.30;65.39;100957.30;124778;1112;24694;-60
2021/03/07 06:35:28;;;;;;;10.10;3.00;;;;;;;2.32;65.65;100959.64;124928;1112;23229;-58
2021/03/07 06:38:00;;;;;;;10.40;2.70;;;;;;;2.33;65.17;100952.95;125170;1112;26116;-58
2021/03/07 06:40:31;;;;;;;7.83;2.03;;;;;;;2.34;65.67;100954.52;124960;1110;22988;-58
2021/03/07 06:43:02;;;;;;;9.07;2.50;;;;;;;2.34;65.65;100954.52;124923;1112;24367;-58
2021/03/07 06:45:40;;;;;;;14.47;3.77;;;;;;;2.35;65.43;100948.62;124929;1110;23158;-58
2021/03/07 06:48:11;;;;;;;12.27;3.63;;;;;;;2.37;65.28;100948.20;124894;1111;22965;-59
2021/03/07 06:50:54;;;;;;;10.90;3.07;;;;;;;2.36;64.73;100943.87;124954;1112;23099;-57
2021/03/07 06:53:35;;;;;;;11.37;3.37;;;;;;;2.38;64.99;100936.77;125941;1111;25972;-60
2021/03/07 06:56:05;;;;;;;11.27;3.10;;;;;;;2.39;65.27;100941.10;125058;1112;23049;-60
2021/03/07 06:58:35;;;;;;;12.68;2.98;;;;;;;2.40;65.35;100933.62;125050;1111;23002;-58
2021/03/07 07:01:16;;;;;;;11.27;2.93;;;;;;;2.41;65.26;100935.97;125045;1111;23023;-57
2021/03/07 07:03:57;;;;;;;12.40;3.40;;;;;;;2.44;65.19;100926.11;124991;1112;23014;-58
2021/03/07 07:06:27;;;;;;;12.35;3.08;;;;;;;2.46;64.65;100932.76;125045;1110;27367;-58
2021/03/07 07:08:55;;;;;;;;;;;;;;;2.49;64.64;100925.66;124892;1110;23169;-59
2021/03/07 07:11:24;;;;;;;10.90;2.80;;;;;;;2.50;64.73;100926.44;124896;1112;26812;-58
2021/03/07 07:13:54;;;;;;;12.35;3.05;;;;;;;2.52;64.22;100935.88;124987;1112;27540;-58
2021/03/07 07:16:23;;;;;;;10.47;2.60;;;;;;;2.54;64.73;100927.19;124983;1112;23020;-57
2021/03/07 07:18:52;;;;;;;10.30;2.30;;;;;;;2.56;64.68;100925.60;125000;1112;23071;-59
2021/03/07 07:21:21;;;;;;;10.27;2.43;;;;;;;2.58;64.25;100922.42;124851;1112;23225;-56
2021/03/07 07:23:53;;;;;;;12.80;3.03;;;;;;;2.60;64.58;100917.28;125002;1112;28393;-61
2021/03/07 07:26:22;;;;;;;10.67;3.03;;;;;;;2.62;64.78;100926.72;124908;1111;26459;-57
2021/03/07 07:28:50;;;;;;;9.87;2.83;;;;;;;2.66;64.23;100915.65;124994;1112;27435;-62
2021/03/07 07:31:30;;;;;;;13.03;3.40;;;;;;;2.68;64.53;100921.53;124847;1112;23027;-59
2021/03/07 07:34:09;;;;;;;10.73;3.17;;;;;;;2.70;64.22;100910.88;125043;1112;23222;-56
2021/03/07 07:36:46;;;;;;;12.43;3.00;;;;;;;2.73;64.10;100921.86;124914;1112;24822;-56
2021/03/07 07:39:23;;;;;;;13.53;3.93;;;;;;;2.76;64.59;100909.23;125026;1112;23199;-56
2021/03/07 07:41:52;;;;;;;10.87;3.40;;;;;;;2.80;64.59;100904.47;124925;1112;23020;-57
2021/03/07 07:44:30;;;;;;;11.40;3.37;;;;;;;2.81;64.77;100904.08;125049;1110;23036;-58
2021/03/07 07:47:01;;;;;;;12.77;3.40;;;;;;;2.84;64.32;100899.70;125136;1112;25126;-57
2021/03/07 07:49:39;;;;;;;12.47;3.63;;;;;;;2.86;64.04;100894.55;125009;1112;23225;-58
2021/03/07 07:52:40;;;;;;;10.67;2.87;;;;;;;2.88;63.78;100883.89;125069;1112;24501;-58
2021/03/07 07:55:12;;;;;;;10.77;3.10;;;;;;;2.90;64.04;100887.81;125061;1111;23071;-58
2021/03/07 07:57:52;;;;;;;16.20;4.17;;;;;;;2.93;63.85;100894.48;124943;1111;23019;-60
2021/03/07 08:00:50;;;;;;;12.88;3.85;;;;;;;2.95;64.02;100886.58;124945;1111;23083;-59
2021/03/07 08:03:40;;;;;;;15.80;3.65;;;;;;;2.98;64.19;100886.53;125072;1112;26459;-59
2021/03/07 08:06:11;;;;;;;13.15;3.30;;;;;;;3.04;63.79;100884.13;124905;1110;23087;-57
2021/03/07 08:08:42;;;;;;;10.73;3.10;;;;;;;3.06;63.57;100884.49;125026;1112;24471;-58
2021/03/07 08:11:29;;;;;;;15.27;4.33;;;;;;;3.07;63.78;100873.03;124962;1112;23023;-58
2021/03/07 08:13:59;;;;;;;13.37;3.77;;;;;;;3.09;64.13;100875.38;124887;1110;23071;-58
2021/03/07 08:16:43;;;;;;;18.80;3.83;;;;;;;3.11;64.14;100867.47;124916;1110;23019;-58
2021/03/07 08:19:13;;;;;;;16.27;4.40;;;;;;;3.12;64.08;100869.05;125120;1111;23561;-59
2021/03/07 08:22:03;;;;;;;15.40;4.65;;;;;;;3.15;63.77;100876.48;125126;1112;24611;-57
2021/03/07 08:24:58;;;;;;;12.78;4.50;;;;;;;3.17;63.62;100863.05;124884;1111;23022;-60
2021/03/07 08:27:38;;;;;;;16.23;4.40;;;;;;;3.21;63.99;100869.30;124391;1111;23063;-59
2021/03/07 08:30:11;;;;;;;15.70;4.10;;;;;;;3.22;64.18;100857.87;124722;1111;23184;-58
2021/03/07 08:32:44;;;;;;;14.63;4.13;;;;;;;3.26;63.84;100857.82;124779;1111;23225;-56
2021/03/07 08:35:17;;;;;;;10.80;3.63;;;;;;;3.29;63.42;100855.00;124833;1111;23109;-58
2021/03/07 08:38:10;;;;;;;14.43;4.07;;;;;;;3.32;64.12;100853.40;124811;1112;26456;-58
2021/03/07 08:40:41;;;;;;;12.87;3.87;;;;;;;3.33;63.74;100848.67;124769;1112;23020;-59
2021/03/07 08:43:47;;;;;;;12.13;3.53;;;;;;;3.35;63.17;100847.06;124695;1111;23155;-58
2021/03/07 08:46:19;;;;;;;14.95;3.75;;;;;;;3.35;63.86;100843.52;124818;1112;24932;-61
2021/03/07 08:48:51;;;;;;;14.13;3.97;;;;;;;3.40;63.59;100849.34;124870;1112;23229;-61
2021/03/07 08:51:29;;;;;;;12.33;3.47;;;;;;;3.43;63.69;100843.01;124765;1112;23116;-62
2021/03/07 08:54:05;;;;;;;10.30;3.07;;;;;;;3.46;63.53;100842.16;124960;1112;24431;-62
2021/03/07 08:56:34;;;;;;;14.63;4.20;;;;;;;3.48;63.22;100842.52;124889;1112;23076;-61
2021/03/07 08:59:04;;;;;;;19.07;4.93;;;;;;;3.51;63.77;100836.18;124995;1111;25766;-62
2021/03/07 09:01:34;;;;;;;15.18;4.78;;;;;;;3.56;63.77;100829.41;124776;1112;23091;-60
2021/03/07 09:04:05;;;;;;;13.00;3.60;;;;;;;3.59;63.24;100836.84;124392;1111;23041;-61
2021/03/07 09:06:36;;;;;;;14.47;4.20;;;;;;;3.64;63.38;100828.86;124628;1112;23222;-59
2021/03/07 09:09:08;;;;;;;12.28;3.50;;;;;;;3.70;63.27;100831.95;124650;1110;23277;-60
2021/03/07 09:11:45;;;;;;;17.13;3.60;;;;;;;3.75;63.13;100823.97;124701;1112;27121;-60
2021/03/07 09:14:14;;;;;;;12.10;3.80;;;;;;;3.78;61.94;100828.67;124686;1112;23080;-59
2021/03/07 09:16:46;;;;;;;13.03;3.93;;;;;;;3.80;62.18;100837.31;124727;1112;23091;-61
2021/03/07 09:19:35;;;;;;;11.00;2.67;;;;;;;3.83;61.09;100830.15;124686;1111;23077;-61
2021/03/07 09:22:17;;;;;;;12.67;3.43;;;;;;;3.83;62.02;100825.41;124691;1112;25918;-60
2021/03/07 09:24:56;;;;;;;16.77;4.40;;;;;;;3.86;62.00;100824.59;125005;1112;23211;-61
2021/03/07 09:27:28;;;;;;;14.75;4.10;;;;;;;3.91;62.28;100815.81;124724;1111;23076;-59
2021/03/07 09:30:16;;;;;;;16.87;3.63;;;;;;;3.92;61.29;100817.39;124839;1112;23017;-57
2021/03/07 09:32:47;;;;;;;11.50;3.07;;;;;;;3.94;60.82;100814.20;126349;1111;23073;-58
2021/03/07 09:35:22;;;;;;;12.17;3.17;;;;;;;3.96;60.94;100820.87;124378;1111;23035;-59
2021/03/07 09:38:03;;;;;;;14.27;4.13;;;;;;;3.96;61.19;100814.55;124963;1110;23069;-60
2021/03/07 09:40:34;;;;;;;12.03;3.57;;;;;;;3.96;60.88;100809.03;124781;1110;22980;-59
2021/03/07 09:43:06;;;;;;;14.93;4.00;;;;;;;3.96;61.51;100809.82;124911;1112;23232;-59
2021/03/07 09:45:37;;;;;;;13.70;4.73;;;;;;;3.98;60.41;100801.89;124512;1112;23122;-60
2021/03/07 09:48:08;;;;;;;15.13;5.13;;;;;;;4.00;60.54;100813.30;124634;1112;23181;-59
2021/03/07 09:50:40;;;;;;;13.93;4.50;;;;;;;4.03;60.80;100806.91;124743;1112;23014;-59
2021/03/07 09:53:10;;;;;;;14.90;4.85;;;;;;;4.05;60.78;100818.36;124589;1112;24369;-58
2021/03/07 09:55:42;;;;;;;12.80;3.60;;;;;;;4.07;59.22;100806.87;124681;1112;23026;-62
2021/03/07 09:58:13;;;;;;;12.80;3.83;;;;;;;4.04;59.48;100797.44;124277;1112;23167;-58
2021/03/07 10:00:46;;;;;;;;;;;;;;;4.04;59.56;100802.97;126424;1112;23011;-60
2021/03/07 10:03:21;;;;;;;13.00;3.47;;;;;;;4.02;59.22;100805.38;128145;1111;21425;-60
2021/03/07 10:06:11;;;;;;;13.17;4.77;;;;;;;4.02;59.17;100801.82;128165;1112;22789;-60
2021/03/07 10:08:42;;;;;;;16.37;5.55;;;;;;;4.00;59.08;100799.48;128262;1111;22885;-59
2021/03/07 10:11:14;;;;;;;;;;;;;;;4.00;58.94;100801.46;128169;1112;22890;-60
2021/03/07 10:13:45;;;;;;;16.43;4.77;;;;;;;4.03;59.52;100800.63;128195;1111;21790;-60
2021/03/07 10:16:26;;;;;;;13.23;4.70;;;;;;;4.05;59.41;100792.70;128223;1112;22853;-60
2021/03/07 10:19:14;;;;;;;14.40;4.97;;;;;;;4.05;59.16;100795.47;126732;1111;26126;-60
2021/03/07 10:21:45;;;;;;;13.67;4.60;;;;;;;4.06;58.61;100806.09;124818;1112;23094;-59
2021/03/07 10:24:17;;;;;;;18.80;5.63;;;;;;;4.04;58.50;100796.66;124782;1110;23046;-57
2021/03/07 10:26:48;;;;;;;14.50;5.20;;;;;;;4.01;58.22;100786.46;124776;1112;23033;-59
2021/03/07 10:29:41;;;;;;;17.03;6.47;;;;;;;4.00;58.85;100793.17;126151;1111;24591;-60
2021/03/07 10:32:18;;;;;;;16.30;5.27;;;;;;;4.01;58.93;100789.23;127980;1112;22888;-65
2021/03/07 10:34:50;;;;;;;15.55;4.70;;;;;;;3.99;59.01;100784.09;125444;1111;23465;-59
2021/03/07 10:37:40;;;;;;;16.87;5.13;;;;;;;4.01;58.96;100778.17;128208;1111;23485;-61
2021/03/07 10:40:14;;;;;;;15.23;4.67;;;;;;;4.03;58.74;100776.53;128158;1111;22840;-61
2021/03/07 10:42:46;;;;;;;17.40;6.60;;;;;;;4.05;58.69;100774.16;128115;1112;22803;-58
2021/03/07 10:45:19;;;;;;;16.83;6.57;;;;;;;4.07;58.71;100773.72;125549;1112;24411;-58
2021/03/07 10:48:02;;;;;;;16.70;5.97;;;;;;;4.09;58.89;100776.84;128099;1111;23571;-59
2021/03/07 10:50:33;;;;;;;19.03;6.03;;;;;;;4.12;58.89;100775.22;126127;1111;28248;-56
2021/03/07 10:53:03;;;;;;;13.37;5.10;;;;;;;4.13;57.93;100774.01;128183;1111;22958;-60
2021/03/07 10:55:33;;;;;;;18.32;6.22;;;;;;;4.12;57.96;100783.52;128159;1110;22866;-59
2021/03/07 10:58:02;;;;;;;17.62;5.75;;;;;;;4.12;58.04;100781.51;128060;1112;22893;-59
2021/03/07 11:00:36;;;;;;;21.63;7.50;;;;;;;4.12;57.97;100775.98;128154;1111;22882;-60
2021/03/07 11:03:10;;;;;;;19.73;8.27;;;;;;;4.12;58.21;100766.94;128136;1111;22895;-66
2021/03/07 11:06:07;;;;;;;21.80;8.20;;;;;;;4.14;58.29;100759.00;124981;1111;23052;-66
2021/03/07 11:08:41;;;;;;;23.83;9.58;;;;;;;4.17;58.23;100763.67;127884;1111;22889;-60
2021/03/07 11:11:10;;;;;;;23.13;7.30;;;;;;;4.21;57.86;100764.38;128180;1110;23497;-59
2021/03/07 11:13:40;;;;;;;23.13;9.40;;;;;;;4.24;57.89;100761.58;128179;1111;22833;-59
2021/03/07 11:16:09;;;;;;;23.77;10.43;;;;;;;4.26;58.47;100755.61;128184;1111;23030;-60
2021/03/07 11:18:41;;;;;;;26.47;10.87;;;;;;;4.27;58.18;100746.11;128106;1111;24769;-58
2021/03/07 11:21:11;;;;;;;21.97;8.60;;;;;;;4.28;57.88;100753.99;124648;1112;23170;-58
2021/03/07 11:23:41;;;;;;;23.10;9.83;;;;;;;4.30;58.01;100740.53;124779;1111;23033;-59
2021/03/07 11:26:32;;;;;;;24.25;8.93;;;;;;;4.28;57.83;100736.62;124957;1112;23093;-57
2021/03/07 11:29:05;;;;;;;18.30;6.53;;;;;;;4.28;57.29;100733.86;124831;1111;23023;-60
2021/03/07 11:31:35;;;;;;;19.45;6.10;;;;;;;4.27;56.87;100732.28;124522;1111;23092;-60
2021/03/07 11:34:07;;;;;;;18.33;5.40;;;;;;;4.24;57.18;100739.47;124598;1112;25939;-61
2021/03/07 11:36:36;;;;;;;17.57;6.07;;;;;;;4.23;57.64;100723.28;124592;1110;25655;-59
2021/03/07 11:39:08;;;;;;;19.27;6.37;;;;;;;4.23;57.49;100731.58;124369;1112;23003;-59
2021/03/07 11:41:42;;;;;;;16.45;5.25;;;;;;;4.23;57.56;100728.81;124864;1111;23242;-59
2021/03/07 11:44:21;;;;;;;20.40;5.97;;;;;;;4.24;57.54;100719.33;124593;1112;28542;-60